createdAt,value
2019-05-18T00:00:04.928Z,94172.09
2019-05-18T00:02:37.649Z,94171.19
2019-05-18T00:05:09.294Z,94174.00
2019-05-18T00:07:40.377Z,94168.41
2019-05-18T00:10:11.831Z,94172.80
2019-05-18T00:12:43.121Z,94176.70
2019-05-18T00:15:15.474Z,94173.77
2019-05-18T00:17:46.499Z,94173.62
2019-05-18T00:20:17.625Z,94169.78
2019-05-18T00:22:48.658Z,94175.89
2019-05-18T00:25:19.904Z,94182.59
2019-05-18T00:27:50.916Z,94177.77
2019-05-18T00:30:22.322Z,94177.45
2019-05-18T00:32:53.425Z,94186.42
2019-05-18T00:35:24.522Z,94171.88
2019-05-18T00:37:55.602Z,94174.78
2019-05-18T00:40:26.704Z,94166.64
2019-05-18T00:42:57.735Z,94162.87
2019-05-18T00:45:29.028Z,94167.48
2019-05-18T00:48:00.107Z,94166.33
2019-05-18T00:50:31.254Z,94166.05
2019-05-18T00:53:02.398Z,94160.62
2019-05-18T00:55:33.583Z,94162.66
2019-05-18T00:58:05.717Z,94157.59
2019-05-18T01:00:36.899Z,94159.27
2019-05-18T01:03:07.968Z,94165.31
2019-05-18T01:05:39.102Z,94166.39
2019-05-18T01:08:10.167Z,94156.05
2019-05-18T01:10:41.387Z,94159.71
2019-05-18T01:13:12.435Z,94161.53
2019-05-18T01:15:43.538Z,94163.14
2019-05-18T01:18:14.588Z,94158.24
2019-05-18T01:20:46.864Z,94162.89
2019-05-18T01:23:17.925Z,94156.97
2019-05-18T01:25:48.959Z,94157.66
2019-05-18T01:28:20.018Z,94158.16
2019-05-18T01:30:51.208Z,94162.31
2019-05-18T01:33:22.272Z,94153.01
2019-05-18T01:35:53.356Z,94159.52
2019-05-18T01:38:24.389Z,94159.25
2019-05-18T01:40:55.487Z,94157.53
2019-05-18T01:43:26.483Z,94149.42
2019-05-18T01:45:57.739Z,94155.83
2019-05-18T01:48:28.806Z,94145.40
2019-05-18T01:50:59.905Z,94145.55
2019-05-18T01:53:30.935Z,94141.30
2019-05-18T01:56:02.411Z,94137.03
2019-05-18T01:58:33.566Z,94141.66
2019-05-18T02:01:04.651Z,94143.25
2019-05-18T02:03:35.678Z,94139.98
2019-05-18T02:06:06.884Z,94141.61
2019-05-18T02:08:37.989Z,94141.23
2019-05-18T02:11:09.232Z,94133.95
2019-05-18T02:13:40.225Z,94134.29
2019-05-18T02:16:11.247Z,94132.87
2019-05-18T02:18:42.341Z,94133.36
2019-05-18T02:21:13.444Z,94134.61
2019-05-18T02:23:44.452Z,94132.48
2019-05-18T02:26:15.538Z,94133.18
2019-05-18T02:28:46.555Z,94131.73
2019-05-18T02:31:17.644Z,94131.33
2019-05-18T02:33:48.730Z,94135.47
2019-05-18T02:36:19.840Z,94126.38
2019-05-18T02:38:50.919Z,94130.58
2019-05-18T02:41:22.066Z,94131.21
2019-05-18T02:43:53.344Z,94127.83
2019-05-18T02:46:24.536Z,94131.14
2019-05-18T02:48:55.534Z,94125.23
2019-05-18T02:51:26.589Z,94131.23
2019-05-18T02:53:57.673Z,94129.00
2019-05-18T02:56:28.861Z,94128.19
2019-05-18T02:58:59.854Z,94122.02
2019-05-18T03:01:30.941Z,94117.42
2019-05-18T03:04:03.200Z,94114.33
2019-05-18T03:06:34.650Z,94122.16
2019-05-18T03:09:07.910Z,94126.18
2019-05-18T03:11:39.008Z,94127.33
2019-05-18T03:14:10.102Z,94132.25
2019-05-18T03:16:41.118Z,94128.98
2019-05-18T03:19:12.338Z,94121.02
2019-05-18T03:21:44.319Z,94123.14
2019-05-18T03:24:15.441Z,94122.23
2019-05-18T03:26:46.508Z,94127.38
2019-05-18T03:29:17.585Z,94129.45
2019-05-18T03:31:48.699Z,94129.80
2019-05-18T03:34:19.780Z,94128.39
2019-05-18T03:36:50.823Z,94125.91
2019-05-18T03:39:21.955Z,94123.42
2019-05-18T03:41:52.977Z,94134.37
2019-05-18T03:44:24.024Z,94135.46
2019-05-18T03:46:55.207Z,94133.87
2019-05-18T03:49:27.728Z,94134.66
2019-05-18T03:51:59.080Z,94140.41
2019-05-18T03:54:30.080Z,94142.17
2019-05-18T03:57:01.241Z,94139.23
2019-05-18T03:59:32.265Z,94148.69
2019-05-18T04:02:03.307Z,94145.60
2019-05-18T04:04:34.462Z,94148.20
2019-05-18T04:07:05.603Z,94150.76
2019-05-18T04:09:36.597Z,94150.39
2019-05-18T04:12:07.618Z,94147.37
2019-05-18T04:14:38.702Z,94154.47
2019-05-18T04:17:09.866Z,94156.44
2019-05-18T04:19:46.989Z,94158.20
2019-05-18T04:22:14.174Z,94154.91
2019-05-18T04:24:45.188Z,94155.83
2019-05-18T04:27:16.295Z,94155.47
2019-05-18T04:29:47.290Z,94156.49
2019-05-18T04:32:18.333Z,94156.86
2019-05-18T04:34:49.411Z,94153.63
2019-05-18T04:37:20.526Z,94154.48
2019-05-18T04:39:52.591Z,94156.39
2019-05-18T04:42:23.623Z,94157.08
2019-05-18T04:44:54.712Z,94157.40
2019-05-18T04:47:25.882Z,94159.23
2019-05-18T04:50:05.318Z,94158.67
2019-05-18T04:52:29.637Z,94159.91
2019-05-18T04:55:00.639Z,94156.98
2019-05-18T04:57:31.672Z,94151.38
2019-05-18T05:00:02.656Z,94159.42
2019-05-18T05:02:33.682Z,94148.23
2019-05-18T05:05:05.390Z,94146.94
2019-05-18T05:07:36.438Z,94150.30
2019-05-18T05:10:09.433Z,94149.70
2019-05-18T05:12:40.475Z,94147.03
2019-05-18T05:15:11.617Z,94150.22
2019-05-18T05:17:42.624Z,94149.22
2019-05-18T05:20:19.610Z,94153.08
2019-05-18T05:22:46.948Z,94158.37
2019-05-18T05:25:18.048Z,94166.55
2019-05-18T05:27:49.152Z,94171.31
2019-05-18T05:30:20.382Z,94169.09
2019-05-18T05:32:51.458Z,94163.03
2019-05-18T05:35:22.606Z,94168.21
2019-05-18T05:37:53.761Z,94162.47
2019-05-18T05:40:24.826Z,94163.89
2019-05-18T05:42:55.952Z,94160.68
2019-05-18T05:45:26.961Z,94154.17
2019-05-18T05:47:58.158Z,94162.22
2019-05-18T05:50:35.964Z,94163.80
2019-05-18T05:53:02.148Z,94163.45
2019-05-18T05:55:33.215Z,94163.80
2019-05-18T05:58:04.376Z,94160.85
2019-05-18T06:00:35.367Z,94167.55
2019-05-18T06:03:06.498Z,94173.45
2019-05-18T06:05:38.549Z,94159.72
2019-05-18T06:08:09.701Z,94169.20
2019-05-18T06:10:40.751Z,94167.78
2019-05-18T06:13:11.951Z,94170.53
2019-05-18T06:15:43.028Z,94170.77
2019-05-18T06:18:14.174Z,94164.55
2019-05-18T06:20:51.462Z,94166.09
2019-05-18T06:23:18.036Z,94168.39
2019-05-18T06:25:49.170Z,94169.02
2019-05-18T06:28:20.235Z,94165.23
2019-05-18T06:30:51.325Z,94166.15
2019-05-18T06:33:22.348Z,94163.56
2019-05-18T06:35:53.390Z,94164.68
2019-05-18T06:38:24.565Z,94156.17
2019-05-18T06:40:55.598Z,94156.56
2019-05-18T06:43:26.648Z,94159.02
2019-05-18T06:45:57.656Z,94155.55
2019-05-18T06:48:28.734Z,94162.48
2019-05-18T06:51:07.122Z,94161.67
2019-05-18T06:53:32.724Z,94157.70
2019-05-18T06:56:04.534Z,94158.00
2019-05-18T06:58:37.132Z,94145.16
2019-05-18T07:01:08.169Z,94142.91
2019-05-18T07:03:39.633Z,94137.52
2019-05-18T07:06:11.309Z,94137.57
2019-05-18T07:08:42.501Z,94145.49
2019-05-18T07:11:13.577Z,94137.00
2019-05-18T07:13:44.637Z,94138.50
2019-05-18T07:16:15.738Z,94133.03
2019-05-18T07:18:46.795Z,94136.88
2019-05-18T07:21:22.252Z,94130.52
2019-05-18T07:23:50.585Z,94133.38
2019-05-18T07:26:21.603Z,94129.28
2019-05-18T07:28:52.724Z,94131.75
2019-05-18T07:31:23.837Z,94128.09
2019-05-18T07:33:54.851Z,94129.14
2019-05-18T07:36:25.927Z,94129.90
2019-05-18T07:38:57.038Z,94132.73
2019-05-18T07:41:28.066Z,94127.05
2019-05-18T07:43:59.106Z,94119.13
2019-05-18T07:46:30.195Z,94123.69
2019-05-18T07:49:01.234Z,94124.69
2019-05-18T07:51:36.977Z,94118.55
2019-05-18T07:54:05.045Z,94125.78
2019-05-18T07:56:36.111Z,94118.77
2019-05-18T07:59:07.300Z,94124.85
2019-05-18T08:01:38.519Z,94118.90
2019-05-18T08:04:09.523Z,94122.64
2019-05-18T08:06:40.611Z,94120.66
2019-05-18T08:09:11.716Z,94121.89
2019-05-18T08:11:42.796Z,94121.61
2019-05-18T08:14:13.886Z,94116.14
2019-05-18T08:16:44.912Z,94123.17
2019-05-18T08:19:17.139Z,94118.74
2019-05-18T08:21:53.310Z,94122.08
2019-05-18T08:24:20.881Z,94114.96
2019-05-18T08:26:51.899Z,94123.44
2019-05-18T08:29:22.920Z,94127.20
2019-05-18T08:31:53.998Z,94121.84
2019-05-18T08:34:25.050Z,94118.80
2019-05-18T08:36:56.064Z,94125.35
2019-05-18T08:39:27.106Z,94127.20
2019-05-18T08:41:58.178Z,94122.95
2019-05-18T08:44:29.189Z,94122.80
2019-05-18T08:47:00.435Z,94118.27
2019-05-18T08:49:31.604Z,94119.02
2019-05-18T08:52:08.184Z,94116.23
2019-05-18T08:54:35.541Z,94121.66
2019-05-18T08:57:06.551Z,94119.86
2019-05-18T08:59:39.912Z,94118.20
2019-05-18T09:02:10.368Z,94110.95
2019-05-18T09:04:41.438Z,94108.03
2019-05-18T09:07:12.567Z,94104.53
2019-05-18T09:09:43.702Z,94105.21
2019-05-18T09:12:14.773Z,94109.03
2019-05-18T09:14:45.889Z,94110.56
2019-05-18T09:17:17.186Z,94105.21
2019-05-18T09:19:48.251Z,94107.76
2019-05-18T09:22:23.090Z,94113.75
2019-05-18T09:24:53.132Z,94112.45
2019-05-18T09:27:24.123Z,94110.11
2019-05-18T09:29:56.308Z,94114.53
2019-05-18T09:32:27.340Z,94105.86
2019-05-18T09:34:58.419Z,94104.91
2019-05-18T09:37:29.559Z,94110.55
2019-05-18T09:40:00.603Z,94110.73
2019-05-18T09:42:31.613Z,94106.75
2019-05-18T09:45:02.793Z,94106.95
2019-05-18T09:47:33.918Z,94105.94
2019-05-18T09:50:05.607Z,94104.72
2019-05-18T09:52:46.094Z,94100.37
2019-05-18T09:55:11.315Z,94103.75
2019-05-18T09:57:42.382Z,94099.43
2019-05-18T10:00:14.941Z,94103.89
2019-05-18T10:02:46.405Z,94107.30
2019-05-18T10:05:17.736Z,94106.66
2019-05-18T10:07:48.974Z,94105.05
2019-05-18T10:10:20.231Z,94100.02
2019-05-18T10:12:51.398Z,94104.05
2019-05-18T10:15:22.591Z,94103.30
2019-05-18T10:17:53.605Z,94108.95
2019-05-18T10:20:25.803Z,94102.28
2019-05-18T10:23:11.908Z,94099.28
2019-05-18T10:25:29.690Z,94096.79
2019-05-18T10:28:00.695Z,94101.92
2019-05-18T10:30:31.834Z,94102.81
2019-05-18T10:33:03.053Z,94096.08
2019-05-18T10:35:34.043Z,94092.59
2019-05-18T10:38:05.214Z,94094.96
2019-05-18T10:40:36.272Z,94092.66
2019-05-18T10:43:07.350Z,94093.98
2019-05-18T10:45:38.582Z,94092.69
2019-05-18T10:48:09.685Z,94095.28
2019-05-18T10:50:40.921Z,94094.89
2019-05-18T10:53:27.437Z,94092.01
2019-05-18T10:55:44.923Z,94093.74
2019-05-18T10:58:15.997Z,94087.75
2019-05-18T11:00:47.513Z,94086.42
2019-05-18T11:03:18.669Z,94081.72
2019-05-18T11:05:49.763Z,94083.25
2019-05-18T11:08:20.912Z,94075.27
2019-05-18T11:10:52.029Z,94080.25
2019-05-18T11:13:23.214Z,94070.55
2019-05-18T11:15:54.406Z,94070.44
2019-05-18T11:18:25.461Z,94061.91
2019-05-18T11:20:56.631Z,94066.47
2019-05-18T11:23:41.467Z,94061.72
2019-05-18T11:26:01.581Z,94063.20
2019-05-18T11:28:32.612Z,94070.25
2019-05-18T11:31:03.713Z,94059.16
2019-05-18T11:33:34.774Z,94054.05
2019-05-18T11:36:05.948Z,94052.08
2019-05-18T11:38:37.122Z,94055.29
2019-05-18T11:41:08.268Z,94057.05
2019-05-18T11:43:39.441Z,94059.36
2019-05-18T11:46:10.624Z,94055.91
2019-05-18T11:48:41.722Z,94053.61
2019-05-18T11:51:12.823Z,94057.07
2019-05-18T11:53:56.212Z,94058.46
2019-05-18T11:56:16.649Z,94052.76
2019-05-18T11:58:47.637Z,94051.77
2019-05-18T12:01:18.671Z,94050.63
2019-05-18T12:03:49.849Z,94052.07
2019-05-18T12:06:20.940Z,94050.88
2019-05-18T12:08:52.137Z,94048.58
2019-05-18T12:11:23.238Z,94047.41
2019-05-18T12:13:55.335Z,94045.98
2019-05-18T12:16:27.480Z,94051.98
2019-05-18T12:18:58.578Z,94048.67
2019-05-18T12:21:29.594Z,94047.36
2019-05-18T12:24:14.086Z,94044.12
2019-05-18T12:26:33.532Z,94045.75
2019-05-18T12:29:04.619Z,94041.84
2019-05-18T12:31:35.781Z,94049.12
2019-05-18T12:34:06.871Z,94047.00
2019-05-18T12:36:38.091Z,94039.23
2019-05-18T12:39:09.207Z,94040.62
2019-05-18T12:41:40.416Z,94035.84
2019-05-18T12:44:11.581Z,94027.60
2019-05-18T12:46:43.052Z,94041.26
2019-05-18T12:49:14.087Z,94034.88
2019-05-18T12:51:45.206Z,94028.87
2019-05-18T12:54:28.657Z,94035.11
2019-05-18T12:56:49.225Z,94029.70
2019-05-18T12:59:20.374Z,94027.71
2019-05-18T13:01:51.510Z,94026.37
2019-05-18T13:04:22.559Z,94025.22
2019-05-18T13:06:53.714Z,94023.39
2019-05-18T13:09:24.962Z,94020.58
2019-05-18T13:11:55.990Z,94019.83
2019-05-18T13:14:27.088Z,94023.78
2019-05-18T13:16:58.175Z,94016.27
2019-05-18T13:19:29.268Z,94011.78
2019-05-18T13:22:00.426Z,94014.53
2019-05-18T13:24:44.206Z,94013.37
2019-05-18T13:27:04.234Z,94012.83
2019-05-18T13:29:35.240Z,94010.69
2019-05-18T13:32:06.506Z,94003.27
2019-05-18T13:34:37.740Z,94010.28
2019-05-18T13:37:08.911Z,94008.70
2019-05-18T13:39:39.919Z,94012.63
2019-05-18T13:42:11.387Z,94006.20
2019-05-18T13:44:42.510Z,94003.34
2019-05-18T13:47:13.615Z,94004.12
2019-05-18T13:49:44.717Z,93999.88
2019-05-18T13:52:15.914Z,94002.59
2019-05-18T13:55:01.940Z,93998.31
2019-05-18T13:57:19.755Z,94002.53
2019-05-18T13:59:50.852Z,93999.55
2019-05-18T14:02:21.994Z,93994.59
2019-05-18T14:04:53.084Z,93992.11
2019-05-18T14:07:24.112Z,93988.97
2019-05-18T14:09:55.180Z,93985.33
2019-05-18T14:12:26.260Z,93983.42
2019-05-18T14:14:57.350Z,93981.51
2019-05-18T14:17:28.469Z,93976.90
2019-05-18T14:19:59.466Z,93987.09
2019-05-18T14:22:30.507Z,93987.52
2019-05-18T14:25:01.514Z,93976.12
2019-05-18T14:27:32.573Z,93976.55
2019-05-18T14:30:03.741Z,93981.64
2019-05-18T14:32:34.794Z,93982.72
2019-05-18T14:35:06.221Z,93977.38
2019-05-18T14:37:37.305Z,93977.52
2019-05-18T14:40:08.951Z,93977.17
2019-05-18T14:42:40.130Z,93976.78
2019-05-18T14:45:11.645Z,93978.73
2019-05-18T14:47:42.745Z,93972.37
2019-05-18T14:50:14.567Z,93980.48
2019-05-18T14:52:45.693Z,93978.57
2019-05-18T14:55:17.507Z,93968.88
2019-05-18T14:57:48.989Z,93972.42
2019-05-18T15:00:21.089Z,93969.23
2019-05-18T15:02:52.128Z,93970.09
2019-05-18T15:05:23.288Z,93969.92
2019-05-18T15:07:54.297Z,93968.19
2019-05-18T15:10:25.380Z,93969.19
2019-05-18T15:12:56.504Z,93969.12
2019-05-18T15:15:27.494Z,93967.31
2019-05-18T15:17:58.525Z,93963.95
2019-05-18T15:20:29.598Z,93967.89
2019-05-18T15:23:00.722Z,93961.08
2019-05-18T15:25:31.821Z,93956.25
2019-05-18T15:28:02.876Z,93950.77
2019-05-18T15:30:34.057Z,93944.92
2019-05-18T15:33:05.241Z,93946.83
2019-05-18T15:35:36.565Z,93939.06
2019-05-18T15:38:07.679Z,93942.80
2019-05-18T15:40:38.657Z,93943.20
2019-05-18T15:43:09.931Z,93941.05
2019-05-18T15:45:41.160Z,93942.75
2019-05-18T15:48:12.263Z,93944.66
2019-05-18T15:50:43.427Z,93947.39
2019-05-18T15:53:14.607Z,93939.36
2019-05-18T15:55:45.675Z,93941.63
2019-05-18T15:58:16.959Z,93934.84
2019-05-18T16:00:48.132Z,93930.80
2019-05-18T16:03:19.226Z,93931.72
2019-05-18T16:05:50.225Z,93932.90
2019-05-18T16:08:21.263Z,93936.14
2019-05-18T16:10:52.272Z,93933.16
2019-05-18T16:13:23.389Z,93934.44
2019-05-18T16:15:55.563Z,93929.11
2019-05-18T16:18:27.737Z,93925.19
2019-05-18T16:20:58.749Z,93934.34
2019-05-18T16:23:29.761Z,93932.08
2019-05-18T16:26:00.886Z,93940.20
2019-05-18T16:28:32.056Z,93936.63
2019-05-18T16:31:03.514Z,93926.61
2019-05-18T16:33:34.665Z,93928.98
2019-05-18T16:36:05.744Z,93939.91
2019-05-18T16:38:37.257Z,93936.34
2019-05-18T16:41:08.371Z,93933.82
2019-05-18T16:43:39.456Z,93939.70
2019-05-18T16:46:10.529Z,93942.43
2019-05-18T16:48:41.959Z,93941.84
2019-05-18T16:51:13.045Z,93941.31
2019-05-18T16:53:48.031Z,93937.80
2019-05-18T16:56:16.776Z,93935.22
2019-05-18T16:58:47.831Z,93932.53
2019-05-18T17:01:19.054Z,93923.03
2019-05-18T17:03:50.184Z,93927.06
2019-05-18T17:06:22.578Z,93930.45
2019-05-18T17:08:53.705Z,93930.10
2019-05-18T17:11:25.050Z,93937.30
2019-05-18T17:13:56.193Z,93944.96
2019-05-18T17:16:27.469Z,93938.95
2019-05-18T17:19:05.583Z,93946.56
2019-05-18T17:21:36.804Z,93939.66
2019-05-18T17:24:07.961Z,93938.84
2019-05-18T17:26:52.235Z,93943.47
2019-05-18T17:29:11.944Z,93939.69
2019-05-18T17:31:42.969Z,93947.44
2019-05-18T17:34:14.047Z,93944.23
2019-05-18T17:36:45.142Z,93935.37
2019-05-18T17:39:16.172Z,93940.67
2019-05-18T17:41:47.285Z,93938.09
2019-05-18T17:44:18.297Z,93944.29
2019-05-18T17:46:49.375Z,93941.34
2019-05-18T17:49:26.643Z,93951.63
2019-05-18T17:51:53.304Z,93947.44
2019-05-18T17:54:24.576Z,93947.20
2019-05-18T17:57:07.489Z,93946.27
2019-05-18T17:59:28.587Z,93948.25
2019-05-18T18:01:59.614Z,93949.42
2019-05-18T18:04:30.617Z,93946.37
2019-05-18T18:07:01.657Z,93951.13
2019-05-18T18:09:32.685Z,93949.75
2019-05-18T18:12:04.194Z,93953.80
2019-05-18T18:14:35.435Z,93956.62
2019-05-18T18:17:06.512Z,93952.94
2019-05-18T18:19:38.680Z,93954.39
2019-05-18T18:22:09.759Z,93959.70
2019-05-18T18:24:40.788Z,93966.61
2019-05-18T18:27:24.198Z,93960.95
2019-05-18T18:29:44.596Z,93969.81
2019-05-18T18:32:15.594Z,93967.73
2019-05-18T18:34:46.610Z,93972.19
2019-05-18T18:37:17.714Z,93971.23
2019-05-18T18:39:49.162Z,93971.69
2019-05-18T18:42:20.333Z,93973.58
2019-05-18T18:44:51.430Z,93971.34
2019-05-18T18:47:22.527Z,93973.65
2019-05-18T18:49:53.588Z,93980.41
2019-05-18T18:52:24.646Z,93976.02
2019-05-18T18:54:55.662Z,93977.67
2019-05-18T18:57:40.169Z,93982.59
2019-05-18T18:59:59.601Z,93987.93
2019-05-18T19:02:30.723Z,93985.36
2019-05-18T19:05:36.586Z,93984.34
2019-05-18T19:08:07.676Z,93995.91
2019-05-18T19:10:38.705Z,93987.48
2019-05-18T19:13:10.913Z,93997.43
2019-05-18T19:15:41.932Z,93992.75
2019-05-18T19:18:12.955Z,93995.09
2019-05-18T19:20:44.020Z,94001.13
2019-05-18T19:23:15.065Z,94007.77
2019-05-18T19:25:46.128Z,94011.60
2019-05-18T19:28:17.285Z,94010.80
2019-05-18T19:30:48.414Z,94010.12
2019-05-18T19:33:19.441Z,94009.13
2019-05-18T19:35:50.474Z,94017.20
2019-05-18T19:38:21.592Z,94015.43
2019-05-18T19:40:52.638Z,94012.86
2019-05-18T19:43:23.656Z,94019.13
2019-05-18T19:45:54.860Z,94013.59
2019-05-18T19:48:25.861Z,94018.02
2019-05-18T19:50:56.866Z,94015.39
2019-05-18T19:53:28.263Z,94025.59
2019-05-18T19:55:59.306Z,94020.52
2019-05-18T19:58:30.365Z,94018.37
2019-05-18T20:01:01.500Z,94023.92
2019-05-18T20:03:32.787Z,94023.50
2019-05-18T20:06:04.438Z,94027.60
2019-05-18T20:08:35.443Z,94023.66
2019-05-18T20:11:06.477Z,94025.64
2019-05-18T20:13:37.941Z,94025.98
2019-05-18T20:16:09.047Z,94031.22
2019-05-18T20:18:40.069Z,94027.24
2019-05-18T20:21:12.418Z,94027.24
2019-05-18T20:23:43.442Z,94023.80
2019-05-18T20:26:14.484Z,94022.98
2019-05-18T20:28:45.504Z,94022.80
2019-05-18T20:31:16.690Z,94026.03
2019-05-18T20:33:47.688Z,94024.43
2019-05-18T20:36:18.733Z,94021.82
2019-05-18T20:38:49.770Z,94026.23
2019-05-18T20:41:20.879Z,94020.70
2019-05-18T20:43:51.868Z,94022.52
2019-05-18T20:46:23.011Z,94024.86
2019-05-18T20:48:54.396Z,94023.22
2019-05-18T20:51:25.550Z,94018.17
2019-05-18T20:53:56.545Z,94019.38
2019-05-18T20:56:27.619Z,94015.25
2019-05-18T20:58:58.782Z,94012.33
2019-05-18T21:01:29.894Z,94018.89
2019-05-18T21:04:00.982Z,94018.46
2019-05-18T21:06:32.013Z,94024.13
2019-05-18T21:09:04.721Z,94022.33
2019-05-18T21:11:37.560Z,94023.28
2019-05-18T21:14:08.696Z,94021.98
2019-05-18T21:16:39.833Z,94022.89
2019-05-18T21:19:10.940Z,94014.84
2019-05-18T21:21:42.010Z,94024.07
2019-05-18T21:24:13.022Z,94031.69
2019-05-18T21:26:44.079Z,94026.23
2019-05-18T21:29:15.138Z,94023.68
2019-05-18T21:31:46.289Z,94018.05
2019-05-18T21:34:18.959Z,94015.84
2019-05-18T21:36:50.440Z,94016.90
2019-05-18T21:39:21.461Z,94022.25
2019-05-18T21:41:52.598Z,94023.55
2019-05-18T21:44:23.639Z,94017.89
2019-05-18T21:46:54.786Z,94019.59
2019-05-18T21:49:25.814Z,94015.84
2019-05-18T21:51:57.954Z,94013.76
2019-05-18T21:54:29.273Z,94014.02
2019-05-18T21:57:00.420Z,94008.97
2019-05-18T21:59:31.505Z,94007.22
2019-05-18T22:02:03.125Z,94008.42
2019-05-18T22:04:34.116Z,94008.81
2019-05-18T22:07:05.290Z,94013.62
2019-05-18T22:09:36.474Z,94012.70
2019-05-18T22:12:07.613Z,94005.16
2019-05-18T22:14:38.641Z,94008.34
2019-05-18T22:17:10.021Z,94001.97
2019-05-18T22:19:41.060Z,93998.23
2019-05-18T22:22:12.146Z,94008.50
2019-05-18T22:24:43.190Z,94004.52
2019-05-18T22:27:14.300Z,94000.60
2019-05-18T22:29:45.301Z,93999.94
2019-05-18T22:32:16.375Z,94003.89
2019-05-18T22:34:47.418Z,94001.23
2019-05-18T22:37:18.542Z,93999.16
2019-05-18T22:39:49.583Z,93994.05
2019-05-18T22:42:20.776Z,93988.18
2019-05-18T22:44:51.927Z,93990.47
2019-05-18T22:47:23.003Z,93993.00
2019-05-18T22:49:53.997Z,93983.25
2019-05-18T22:52:25.033Z,93988.22
2019-05-18T22:54:56.107Z,93979.45
2019-05-18T22:57:27.127Z,93980.09
2019-05-18T22:59:58.122Z,93978.34
2019-05-18T23:02:29.314Z,93971.89
2019-05-18T23:05:00.361Z,93968.75
2019-05-18T23:07:31.382Z,93960.61
2019-05-18T23:10:02.472Z,93968.78
2019-05-18T23:12:34.664Z,93974.77
2019-05-18T23:15:06.277Z,93973.83
2019-05-18T23:17:37.390Z,93974.27
2019-05-18T23:20:08.762Z,93975.95
2019-05-18T23:22:39.781Z,93971.33
2019-05-18T23:25:11.262Z,93970.91
2019-05-18T23:27:43.600Z,93970.93
2019-05-18T23:30:15.039Z,93971.48
2019-05-18T23:32:46.115Z,93968.88
2019-05-18T23:35:17.183Z,93966.64
2019-05-18T23:37:48.325Z,93973.26
2019-05-18T23:40:20.162Z,93973.61
2019-05-18T23:42:51.310Z,93969.77
2019-05-18T23:45:22.473Z,93967.77
2019-05-18T23:47:53.500Z,93967.41
2019-05-18T23:50:24.699Z,93964.13
2019-05-18T23:52:56.092Z,93962.58
2019-05-18T23:55:27.158Z,93963.66
2019-05-18T23:58:05.303Z,93969.08
